LGRX/GPA METAR and TAF weather

Enter ICAO airport designator
Station Type Date Time Source
LGRX METAR 2022/06/27 09:20 UTC NOAA

LGRX 270920Z 03004KT 9999 FEW025 32/17 Q1015


Station Type Date Time Source
LGRX Decoded METAR 2022/06/27 09:20 UTC NOAA

Araxos Airport , Greece (LGRX) 38-09N 021-25E 12M
Jun 27, 2022 - 05:20 AM EDT / 2022.06.27 0920 UTC
Wind: from the NNE (030 degrees) at 5 MPH (4 KT):0
Visibility: greater than 7 mile(s):0
Sky conditions: mostly clear
Temperature: 89 F (32 C)
Dew Point: 62 F (17 C)
Relative Humidity: 40%
Pressure (altimeter): 29.97 in. Hg (1015 hPa)
ob: LGRX 270920Z 03004KT 9999 FEW025 32/17 Q1015
cycle: 9

Station Type Date Time Source
LGRX TAF 2020/03/18 09:39 UTC NOAA

TAF LGRX 180800Z 1809/1821 33006KT 9999 FEW030
BECMG 1816/1818 07010KT

Example: see airport list